sensor_id;sensor_type;location;lat;lon;timestamp;pressure;altitude;pressure_sealevel;temperature;humidity
60319;BME280;46163;52.306;5.634;2023-06-22T00:01:18;101870.84;;;16.10;76.01
60319;BME280;46163;52.306;5.634;2023-06-22T00:03:47;101866.31;;;16.04;76.65
60319;BME280;46163;52.306;5.634;2023-06-22T00:06:12;101872.53;;;15.98;76.47
60319;BME280;46163;52.306;5.634;2023-06-22T00:08:38;101864.69;;;16.03;75.68
60319;BME280;46163;52.306;5.634;2023-06-22T00:11:03;101868.00;;;15.99;76.40
60319;BME280;46163;52.306;5.634;2023-06-22T00:13:29;101860.88;;;16.24;75.75
60319;BME280;46163;52.306;5.634;2023-06-22T00:15:57;101854.31;;;16.07;76.44
60319;BME280;46163;52.306;5.634;2023-06-22T00:18:24;101862.22;;;16.02;76.14
60319;BME280;46163;52.306;5.634;2023-06-22T00:20:54;101848.34;;;16.05;76.41
60319;BME280;46163;52.306;5.634;2023-06-22T00:23:23;101866.00;;;16.32;75.84
60319;BME280;46163;52.306;5.634;2023-06-22T00:25:49;101866.78;;;16.39;75.63
60319;BME280;46163;52.306;5.634;2023-06-22T00:28:15;101863.94;;;16.34;75.38
60319;BME280;46163;52.306;5.634;2023-06-22T00:30:40;101863.47;;;16.44;75.29
60319;BME280;46163;52.306;5.634;2023-06-22T00:33:08;101861.59;;;16.51;74.82
60319;BME280;46163;52.306;5.634;2023-06-22T00:35:33;101852.50;;;16.52;74.61
60319;BME280;46163;52.306;5.634;2023-06-22T00:38:00;101853.28;;;16.59;74.12
60319;BME280;46163;52.306;5.634;2023-06-22T00:40:32;101863.50;;;16.37;75.34
60319;BME280;46163;52.306;5.634;2023-06-22T00:42:58;101845.88;;;16.10;75.74
60319;BME280;46163;52.306;5.634;2023-06-22T00:45:24;101832.91;;;15.87;76.91
60319;BME280;46163;52.306;5.634;2023-06-22T00:47:55;101839.97;;;15.81;77.74
60319;BME280;46163;52.306;5.634;2023-06-22T00:50:22;101836.28;;;15.69;77.30
60319;BME280;46163;52.306;5.634;2023-06-22T00:52:55;101830.09;;;15.69;77.35
60319;BME280;46163;52.306;5.634;2023-06-22T00:55:22;101827.84;;;15.66;77.55
60319;BME280;46163;52.306;5.634;2023-06-22T00:57:48;101836.50;;;15.68;77.38
60319;BME280;46163;52.306;5.634;2023-06-22T01:00:14;101833.38;;;15.58;77.46
60319;BME280;46163;52.306;5.634;2023-06-22T01:02:45;101837.72;;;15.52;77.23
60319;BME280;46163;52.306;5.634;2023-06-22T01:05:21;101842.25;;;15.45;78.78
60319;BME280;46163;52.306;5.634;2023-06-22T01:14:20;101847.41;;;15.60;76.83
60319;BME280;46163;52.306;5.634;2023-06-22T01:16:30;101843.31;;;15.50;76.98
60319;BME280;46163;52.306;5.634;2023-06-22T01:18:57;101835.69;;;15.47;77.27
60319;BME280;46163;52.306;5.634;2023-06-22T01:21:28;101833.41;;;15.44;76.90
60319;BME280;46163;52.306;5.634;2023-06-22T01:29:41;101836.91;;;15.45;76.67
60319;BME280;46163;52.306;5.634;2023-06-22T01:32:09;101836.91;;;15.45;76.53
60319;BME280;46163;52.306;5.634;2023-06-22T01:34:37;101840.00;;;15.55;76.43
60319;BME280;46163;52.306;5.634;2023-06-22T01:37:06;101835.66;;;15.67;75.84
60319;BME280;46163;52.306;5.634;2023-06-22T01:39:31;101820.59;;;15.53;75.99
60319;BME280;46163;52.306;5.634;2023-06-22T01:41:58;101824.50;;;15.57;75.92
60319;BME280;46163;52.306;5.634;2023-06-22T01:44:25;101835.28;;;15.31;76.46
60319;BME280;46163;52.306;5.634;2023-06-22T01:46:52;101838.56;;;14.99;77.43
60319;BME280;46163;52.306;5.634;2023-06-22T01:49:18;101843.72;;;14.88;78.08
60319;BME280;46163;52.306;5.634;2023-06-22T01:51:44;101834.41;;;14.64;78.76
60319;BME280;46163;52.306;5.634;2023-06-22T01:54:09;101836.69;;;14.60;79.21
60319;BME280;46163;52.306;5.634;2023-06-22T01:56:35;101838.97;;;14.70;79.83
60319;BME280;46163;52.306;5.634;2023-06-22T02:01:54;101820.41;;;14.68;78.70
60319;BME280;46163;52.306;5.634;2023-06-22T02:04:55;101830.94;;;14.96;78.06
60319;BME280;46163;52.306;5.634;2023-06-22T02:07:23;101831.94;;;14.76;78.82
60319;BME280;46163;52.306;5.634;2023-06-22T02:09:50;101816.69;;;14.76;78.19
60319;BME280;46163;52.306;5.634;2023-06-22T02:12:22;101828.06;;;14.98;77.70
60319;BME280;46163;52.306;5.634;2023-06-22T02:14:48;101818.78;;;15.01;77.44
60319;BME280;46163;52.306;5.634;2023-06-22T02:17:16;101828.88;;;14.92;77.39
60319;BME280;46163;52.306;5.634;2023-06-22T02:19:42;101824.34;;;14.79;77.83
60319;BME280;46163;52.306;5.634;2023-06-22T02:22:07;101822.63;;;14.58;78.90
60319;BME280;46163;52.306;5.634;2023-06-22T02:24:33;101811.13;;;14.64;77.84
60319;BME280;46163;52.306;5.634;2023-06-22T02:27:00;101819.78;;;14.66;78.08
60319;BME280;46163;52.306;5.634;2023-06-22T02:29:26;101809.91;;;14.87;77.57
60319;BME280;46163;52.306;5.634;2023-06-22T02:31:53;101805.78;;;14.78;77.08
60319;BME280;46163;52.306;5.634;2023-06-22T02:34:18;101814.63;;;14.65;77.90
60319;BME280;46163;52.306;5.634;2023-06-22T02:36:45;101817.31;;;14.72;77.71
60319;BME280;46163;52.306;5.634;2023-06-22T02:39:18;101807.78;;;14.49;78.32
60319;BME280;46163;52.306;5.634;2023-06-22T02:41:44;101797.19;;;14.28;78.92
60319;BME280;46163;52.306;5.634;2023-06-22T02:44:09;101817.19;;;14.25;79.77
60319;BME280;46163;52.306;5.634;2023-06-22T02:46:37;101813.47;;;14.33;79.23
60319;BME280;46163;52.306;5.634;2023-06-22T02:49:03;101814.69;;;14.24;79.85
60319;BME280;46163;52.306;5.634;2023-06-22T02:51:28;101811.38;;;14.22;79.60
60319;BME280;46163;52.306;5.634;2023-06-22T02:53:54;101804.56;;;14.12;79.77
60319;BME280;46163;52.306;5.634;2023-06-22T02:56:24;101808.06;;;14.13;79.66
60319;BME280;46163;52.306;5.634;2023-06-22T02:58:51;101795.69;;;14.12;80.45
60319;BME280;46163;52.306;5.634;2023-06-22T03:01:16;101803.53;;;14.13;80.59
60319;BME280;46163;52.306;5.634;2023-06-22T03:03:44;101806.63;;;14.10;80.09
60319;BME280;46163;52.306;5.634;2023-06-22T03:06:09;101813.84;;;14.17;80.34
60319;BME280;46163;52.306;5.634;2023-06-22T03:08:39;101811.75;;;14.12;80.78
60319;BME280;46163;52.306;5.634;2023-06-22T03:11:04;101793.19;;;14.04;80.78
60319;BME280;46163;52.306;5.634;2023-06-22T03:13:29;101792.78;;;14.00;80.67
60319;BME280;46163;52.306;5.634;2023-06-22T03:15:55;101802.47;;;14.01;80.24
60319;BME280;46163;52.306;5.634;2023-06-22T03:18:21;101807.53;;;13.90;79.61
60319;BME280;46163;52.306;5.634;2023-06-22T03:20:47;101814.31;;;13.85;80.39
60319;BME280;46163;52.306;5.634;2023-06-22T03:23:13;101805.47;;;13.85;81.50
60319;BME280;46163;52.306;5.634;2023-06-22T03:25:38;101801.34;;;13.82;81.24
60319;BME280;46163;52.306;5.634;2023-06-22T03:28:04;101802.19;;;13.83;79.67
60319;BME280;46163;52.306;5.634;2023-06-22T03:30:29;101812.06;;;13.82;80.37
60319;BME280;46163;52.306;5.634;2023-06-22T03:32:55;101812.69;;;13.84;80.30
60319;BME280;46163;52.306;5.634;2023-06-22T03:35:20;101812.06;;;13.82;80.12
60319;BME280;46163;52.306;5.634;2023-06-22T03:37:46;101818.66;;;13.86;80.39
60319;BME280;46163;52.306;5.634;2023-06-22T03:40:12;101805.81;;;13.69;80.12
60319;BME280;46163;52.306;5.634;2023-06-22T03:42:38;101812.78;;;13.70;80.09
60319;BME280;46163;52.306;5.634;2023-06-22T03:45:04;101809.56;;;13.81;81.15
60319;BME280;46163;52.306;5.634;2023-06-22T03:47:29;101787.16;;;13.82;81.17
60319;BME280;46163;52.306;5.634;2023-06-22T03:49:55;101786.13;;;13.90;81.24
60319;BME280;46163;52.306;5.634;2023-06-22T03:52:23;101791.47;;;13.90;80.96
60319;BME280;46163;52.306;5.634;2023-06-22T03:54:50;101788.59;;;13.84;80.82
60319;BME280;46163;52.306;5.634;2023-06-22T03:57:16;101789.84;;;13.82;80.64
60319;BME280;46163;52.306;5.634;2023-06-22T03:59:41;101796.00;;;13.82;81.40
60319;BME280;46163;52.306;5.634;2023-06-22T04:02:07;101794.78;;;13.85;80.85
60319;BME280;46163;52.306;5.634;2023-06-22T04:04:32;101803.22;;;13.89;80.42
60319;BME280;46163;52.306;5.634;2023-06-22T04:06:59;101798.91;;;13.88;80.31
60319;BME280;46163;52.306;5.634;2023-06-22T04:09:24;101789.84;;;13.82;80.67
60319;BME280;46163;52.306;5.634;2023-06-22T04:11:49;101789.34;;;13.72;80.68
60319;BME280;46163;52.306;5.634;2023-06-22T04:14:15;101787.69;;;13.71;80.14
60319;BME280;46163;52.306;5.634;2023-06-22T04:16:40;101786.44;;;13.67;79.97
60319;BME280;46163;52.306;5.634;2023-06-22T04:19:06;101794.34;;;13.81;80.25
60319;BME280;46163;52.306;5.634;2023-06-22T04:21:31;101798.84;;;13.81;80.54
60319;BME280;46163;52.306;5.634;2023-06-22T04:23:56;101780.78;;;13.83;80.23
60319;BME280;46163;52.306;5.634;2023-06-22T04:26:22;101794.56;;;13.86;79.12
60319;BME280;46163;52.306;5.634;2023-06-22T04:28:56;101787.78;;;13.84;79.89
60319;BME280;46163;52.306;5.634;2023-06-22T04:31:22;101791.91;;;13.86;80.00
60319;BME280;46163;52.306;5.634;2023-06-22T04:33:57;101778.50;;;13.86;79.81
60319;BME280;46163;52.306;5.634;2023-06-22T04:36:22;101776.88;;;13.85;79.24
60319;BME280;46163;52.306;5.634;2023-06-22T04:38:48;101782.06;;;13.94;79.94
60319;BME280;46163;52.306;5.634;2023-06-22T04:41:39;101776.28;;;13.97;80.62
60319;BME280;46163;52.306;5.634;2023-06-22T04:45:00;101780.66;;;14.04;80.79
60319;BME280;46163;52.306;5.634;2023-06-22T04:47:35;101785.63;;;14.14;80.30
60319;BME280;46163;52.306;5.634;2023-06-22T05:00:18;101782.44;;;14.58;79.99
60319;BME280;46163;52.306;5.634;2023-06-22T05:06:31;101774.03;;;14.75;80.30
60319;BME280;46163;52.306;5.634;2023-06-22T05:12:22;101782.91;;;15.08;79.71
60319;BME280;46163;52.306;5.634;2023-06-22T05:14:48;101774.84;;;15.15;80.25
60319;BME280;46163;52.306;5.634;2023-06-22T05:17:14;101782.25;;;15.26;80.80
60319;BME280;46163;52.306;5.634;2023-06-22T05:19:41;101772.13;;;15.35;80.37
60319;BME280;46163;52.306;5.634;2023-06-22T05:22:10;101769.00;;;15.44;80.46
60319;BME280;46163;52.306;5.634;2023-06-22T05:24:37;101785.13;;;15.64;82.26
60319;BME280;46163;52.306;5.634;2023-06-22T05:27:03;101768.16;;;15.70;81.79
60319;BME280;46163;52.306;5.634;2023-06-22T05:29:28;101779.88;;;15.82;80.92
60319;BME280;46163;52.306;5.634;2023-06-22T05:31:54;101779.44;;;15.92;80.62
60319;BME280;46163;52.306;5.634;2023-06-22T05:34:19;101771.75;;;16.02;80.87
60319;BME280;46163;52.306;5.634;2023-06-22T05:36:45;101771.28;;;16.12;80.46
60319;BME280;46163;52.306;5.634;2023-06-22T05:39:12;101753.31;;;16.13;80.36
60319;BME280;46163;52.306;5.634;2023-06-22T05:41:38;101787.66;;;16.42;80.57
60319;BME280;46163;52.306;5.634;2023-06-22T05:44:04;101788.38;;;16.56;80.69
60319;BME280;46163;52.306;5.634;2023-06-22T05:46:30;101780.41;;;16.74;79.69
60319;BME280;46163;52.306;5.634;2023-06-22T05:48:55;101785.25;;;16.90;79.31
60319;BME280;46163;52.306;5.634;2023-06-22T05:51:21;101785.53;;;17.07;79.28
60319;BME280;46163;52.306;5.634;2023-06-22T05:53:47;101783.13;;;17.42;78.17
60319;BME280;46163;52.306;5.634;2023-06-22T05:56:15;101782.38;;;17.53;77.56
60319;BME280;46163;52.306;5.634;2023-06-22T05:58:41;101778.34;;;17.63;77.12
60319;BME280;46163;52.306;5.634;2023-06-22T06:01:06;101770.97;;;17.76;76.90
60319;BME280;46163;52.306;5.634;2023-06-22T06:03:32;101780.19;;;18.17;75.63
60319;BME280;46163;52.306;5.634;2023-06-22T06:05:57;101787.56;;;18.22;75.75
60319;BME280;46163;52.306;5.634;2023-06-22T06:08:27;101776.38;;;18.25;75.33
60319;BME280;46163;52.306;5.634;2023-06-22T06:10:53;101786.91;;;18.26;75.35
60319;BME280;46163;52.306;5.634;2023-06-22T06:13:20;101798.44;;;18.45;75.23
60319;BME280;46163;52.306;5.634;2023-06-22T06:15:45;101781.91;;;18.42;74.64
60319;BME280;46163;52.306;5.634;2023-06-22T06:18:11;101790.91;;;18.66;74.27
60319;BME280;46163;52.306;5.634;2023-06-22T06:20:37;101783.00;;;18.94;73.54
60319;BME280;46163;52.306;5.634;2023-06-22T06:23:02;101791.19;;;18.99;73.12
60319;BME280;46163;52.306;5.634;2023-06-22T06:25:28;101777.13;;;18.97;72.88
60319;BME280;46163;52.306;5.634;2023-06-22T06:27:53;101790.84;;;19.19;72.34
60319;BME280;46163;52.306;5.634;2023-06-22T06:30:20;101785.34;;;19.26;72.38
60319;BME280;46163;52.306;5.634;2023-06-22T06:32:46;101771.03;;;19.25;71.80
60319;BME280;46163;52.306;5.634;2023-06-22T06:35:14;101760.69;;;19.34;71.73
60319;BME280;46163;52.306;5.634;2023-06-22T06:37:40;101775.34;;;19.61;70.97
60319;BME280;46163;52.306;5.634;2023-06-22T06:40:07;101771.59;;;19.62;71.72
60319;BME280;46163;52.306;5.634;2023-06-22T06:42:39;101769.84;;;19.96;69.05
60319;BME280;46163;52.306;5.634;2023-06-22T06:45:20;101764.81;;;20.00;69.37
60319;BME280;46163;52.306;5.634;2023-06-22T06:47:48;101757.47;;;20.12;69.11
60319;BME280;46163;52.306;5.634;2023-06-22T06:50:15;101756.19;;;20.31;68.75
60319;BME280;46163;52.306;5.634;2023-06-22T06:52:41;101746.66;;;20.57;67.82
60319;BME280;46163;52.306;5.634;2023-06-22T06:55:07;101759.94;;;20.76;66.99
60319;BME280;46163;52.306;5.634;2023-06-22T06:57:37;101744.06;;;20.79;66.85
60319;BME280;46163;52.306;5.634;2023-06-22T07:00:07;101750.19;;;20.92;65.70
60319;BME280;46163;52.306;5.634;2023-06-22T07:02:39;101749.78;;;21.00;65.49
60319;BME280;46163;52.306;5.634;2023-06-22T07:05:08;101750.25;;;21.30;65.77
60319;BME280;46163;52.306;5.634;2023-06-22T07:07:37;101752.47;;;21.99;63.67
60319;BME280;46163;52.306;5.634;2023-06-22T07:10:05;101733.22;;;24.02;57.80
60319;BME280;46163;52.306;5.634;2023-06-22T07:12:30;101725.25;;;25.97;51.26
60319;BME280;46163;52.306;5.634;2023-06-22T07:15:06;101720.63;;;26.37;49.60
60319;BME280;46163;52.306;5.634;2023-06-22T07:17:37;101727.13;;;27.95;44.92
60319;BME280;46163;52.306;5.634;2023-06-22T07:20:03;101715.34;;;28.32;44.19
60319;BME280;46163;52.306;5.634;2023-06-22T07:22:36;101710.47;;;28.75;42.06
60319;BME280;46163;52.306;5.634;2023-06-22T07:25:02;101725.69;;;29.55;41.22
60319;BME280;46163;52.306;5.634;2023-06-22T07:27:45;101720.38;;;29.72;39.78
60319;BME280;46163;52.306;5.634;2023-06-22T07:30:12;101722.31;;;30.53;39.43
60319;BME280;46163;52.306;5.634;2023-06-22T07:32:38;101713.72;;;31.16;37.24
60319;BME280;46163;52.306;5.634;2023-06-22T07:35:03;101709.97;;;31.04;38.68
60319;BME280;46163;52.306;5.634;2023-06-22T07:37:30;101711.00;;;30.32;37.88
60319;BME280;46163;52.306;5.634;2023-06-22T07:39:56;101736.66;;;30.27;38.44
60319;BME280;46163;52.306;5.634;2023-06-22T07:42:25;101727.53;;;31.25;37.45
60319;BME280;46163;52.306;5.634;2023-06-22T07:44:51;101719.88;;;31.79;35.21
60319;BME280;46163;52.306;5.634;2023-06-22T07:47:17;101715.00;;;32.45;35.05
60319;BME280;46163;52.306;5.634;2023-06-22T07:49:50;101712.94;;;31.99;37.61
60319;BME280;46163;52.306;5.634;2023-06-22T07:52:15;101712.91;;;31.73;35.52
60319;BME280;46163;52.306;5.634;2023-06-22T07:54:41;101716.91;;;33.09;33.62
60319;BME280;46163;52.306;5.634;2023-06-22T07:57:06;101703.75;;;34.85;31.83
60319;BME280;46163;52.306;5.634;2023-06-22T07:59:32;101706.19;;;36.60;30.12
60319;BME280;46163;52.306;5.634;2023-06-22T08:01:58;101701.03;;;36.30;29.11
60319;BME280;46163;52.306;5.634;2023-06-22T08:04:27;101708.16;;;35.47;29.98
60319;BME280;46163;52.306;5.634;2023-06-22T08:06:54;101694.38;;;35.63;33.08
60319;BME280;46163;52.306;5.634;2023-06-22T08:09:19;101691.88;;;35.86;29.70
60319;BME280;46163;52.306;5.634;2023-06-22T08:11:45;101698.56;;;35.45;29.62
60319;BME280;46163;52.306;5.634;2023-06-22T08:14:10;101685.22;;;35.22;28.79
60319;BME280;46163;52.306;5.634;2023-06-22T08:16:35;101686.22;;;35.82;29.16
60319;BME280;46163;52.306;5.634;2023-06-22T08:19:01;101694.19;;;35.07;28.55
60319;BME280;46163;52.306;5.634;2023-06-22T08:21:26;101683.16;;;35.72;29.36
60319;BME280;46163;52.306;5.634;2023-06-22T08:23:52;101666.38;;;35.92;28.42
60319;BME280;46163;52.306;5.634;2023-06-22T08:26:17;101666.47;;;36.56;29.10
60319;BME280;46163;52.306;5.634;2023-06-22T08:28:43;101651.50;;;37.07;27.49
60319;BME280;46163;52.306;5.634;2023-06-22T08:31:09;101672.78;;;37.54;27.07
60319;BME280;46163;52.306;5.634;2023-06-22T08:37:00;101655.47;;;36.43;26.86
60319;BME280;46163;52.306;5.634;2023-06-22T08:39:26;101657.00;;;36.88;30.12
60319;BME280;46163;52.306;5.634;2023-06-22T08:41:53;101645.19;;;36.44;26.64
60319;BME280;46163;52.306;5.634;2023-06-22T08:48:03;101642.16;;;37.16;25.39
60319;BME280;46163;52.306;5.634;2023-06-22T08:50:34;101638.09;;;35.87;26.79
60319;BME280;46163;52.306;5.634;2023-06-22T08:53:05;101627.66;;;36.56;26.18
60319;BME280;46163;52.306;5.634;2023-06-22T08:55:33;101651.06;;;35.18;27.01
60319;BME280;46163;52.306;5.634;2023-06-22T08:58:04;101641.31;;;34.60;27.93
60319;BME280;46163;52.306;5.634;2023-06-22T09:00:41;101627.78;;;34.34;28.82
60319;BME280;46163;52.306;5.634;2023-06-22T09:07:06;101625.72;;;33.77;30.26
60319;BME280;46163;52.306;5.634;2023-06-22T09:16:45;101620.59;;;33.25;30.91
60319;BME280;46163;52.306;5.634;2023-06-22T09:23:15;101633.44;;;31.63;33.59
60319;BME280;46163;52.306;5.634;2023-06-22T09:29:29;101632.16;;;30.55;34.71
60319;BME280;46163;52.306;5.634;2023-06-22T09:38:31;101620.28;;;32.12;31.97
60319;BME280;46163;52.306;5.634;2023-06-22T09:40:56;101606.72;;;31.63;33.66
60319;BME280;46163;52.306;5.634;2023-06-22T09:43:22;101613.22;;;32.49;33.01
60319;BME280;46163;52.306;5.634;2023-06-22T09:45:47;101611.47;;;33.33;30.79
60319;BME280;46163;52.306;5.634;2023-06-22T09:48:13;101603.44;;;33.82;30.29
60319;BME280;46163;52.306;5.634;2023-06-22T09:50:39;101610.66;;;34.89;28.00
60319;BME280;46163;52.306;5.634;2023-06-22T09:53:04;101597.56;;;35.66;27.41
60319;BME280;46163;52.306;5.634;2023-06-22T09:55:30;101605.41;;;34.39;28.55
60319;BME280;46163;52.306;5.634;2023-06-22T09:57:56;101609.47;;;33.63;30.47
60319;BME280;46163;52.306;5.634;2023-06-22T10:00:21;101600.66;;;32.98;32.15
60319;BME280;46163;52.306;5.634;2023-06-22T10:02:47;101611.81;;;31.04;35.29
60319;BME280;46163;52.306;5.634;2023-06-22T10:05:13;101609.31;;;30.46;36.76
60319;BME280;46163;52.306;5.634;2023-06-22T10:07:39;101611.00;;;29.57;38.95
60319;BME280;46163;52.306;5.634;2023-06-22T10:10:08;101603.56;;;29.21;39.80
60319;BME280;46163;52.306;5.634;2023-06-22T10:12:34;101622.88;;;28.29;42.01
60319;BME280;46163;52.306;5.634;2023-06-22T10:15:00;101622.47;;;28.03;42.28
60319;BME280;46163;52.306;5.634;2023-06-22T10:17:25;101624.03;;;27.52;42.92
60319;BME280;46163;52.306;5.634;2023-06-22T10:19:51;101607.56;;;27.57;43.78
60319;BME280;46163;52.306;5.634;2023-06-22T10:22:16;101609.63;;;26.85;43.38
60319;BME280;46163;52.306;5.634;2023-06-22T10:24:42;101600.75;;;27.17;42.50
60319;BME280;46163;52.306;5.634;2023-06-22T10:27:11;101614.81;;;27.11;42.72
60319;BME280;46163;52.306;5.634;2023-06-22T10:29:37;101610.78;;;27.03;43.28
60319;BME280;46163;52.306;5.634;2023-06-22T10:32:03;101617.63;;;26.18;45.66
60319;BME280;46163;52.306;5.634;2023-06-22T10:34:31;101613.13;;;25.64;47.67
60319;BME280;46163;52.306;5.634;2023-06-22T10:36:56;101610.50;;;25.44;47.49
60319;BME280;46163;52.306;5.634;2023-06-22T10:39:22;101628.22;;;25.47;47.60
60319;BME280;46163;52.306;5.634;2023-06-22T10:41:47;101621.88;;;25.07;48.37
60319;BME280;46163;52.306;5.634;2023-06-22T10:44:13;101610.78;;;24.78;49.94
60319;BME280;46163;52.306;5.634;2023-06-22T10:46:38;101622.75;;;24.82;50.55
60319;BME280;46163;52.306;5.634;2023-06-22T10:49:04;101614.63;;;24.67;51.01
60319;BME280;46163;52.306;5.634;2023-06-22T10:51:30;101616.72;;;24.90;50.64
60319;BME280;46163;52.306;5.634;2023-06-22T10:53:56;101628.66;;;25.09;49.55
60319;BME280;46163;52.306;5.634;2023-06-22T10:56:22;101614.31;;;25.48;48.57
60319;BME280;46163;52.306;5.634;2023-06-22T10:58:48;101629.44;;;25.70;47.12
60319;BME280;46163;52.306;5.634;2023-06-22T11:01:13;101624.78;;;25.70;47.00
60319;BME280;46163;52.306;5.634;2023-06-22T11:03:39;101619.63;;;25.74;46.64
60319;BME280;46163;52.306;5.634;2023-06-22T11:06:05;101622.06;;;25.70;48.23
60319;BME280;46163;52.306;5.634;2023-06-22T11:08:31;101633.56;;;25.62;47.80
60319;BME280;46163;52.306;5.634;2023-06-22T11:10:56;101622.91;;;25.71;47.36
60319;BME280;46163;52.306;5.634;2023-06-22T11:13:22;101611.72;;;25.67;47.73
60319;BME280;46163;52.306;5.634;2023-06-22T11:15:47;101610.69;;;25.63;47.93
60319;BME280;46163;52.306;5.634;2023-06-22T11:18:13;101613.03;;;25.80;47.77
60319;BME280;46163;52.306;5.634;2023-06-22T11:20:39;101601.88;;;25.76;47.45
60319;BME280;46163;52.306;5.634;2023-06-22T11:23:06;101614.31;;;25.48;48.67
60319;BME280;46163;52.306;5.634;2023-06-22T11:25:32;101595.25;;;25.43;47.29
60319;BME280;46163;52.306;5.634;2023-06-22T11:28:02;101598.72;;;25.54;47.07
60319;BME280;46163;52.306;5.634;2023-06-22T11:30:28;101608.50;;;25.00;48.74
60319;BME280;46163;52.306;5.634;2023-06-22T11:32:53;101617.34;;;24.77;49.95
60319;BME280;46163;52.306;5.634;2023-06-22T11:35:19;101602.06;;;24.81;50.46
60319;BME280;46163;52.306;5.634;2023-06-22T11:37:44;101603.41;;;24.84;50.05
60319;BME280;46163;52.306;5.634;2023-06-22T11:40:10;101593.59;;;24.83;49.42
60319;BME280;46163;52.306;5.634;2023-06-22T11:42:36;101596.56;;;24.96;49.77
60319;BME280;46163;52.306;5.634;2023-06-22T11:45:06;101588.94;;;24.93;50.24
60319;BME280;46163;52.306;5.634;2023-06-22T11:47:32;101588.44;;;24.86;49.66
60319;BME280;46163;52.306;5.634;2023-06-22T11:49:57;101585.47;;;24.72;49.80
60319;BME280;46163;52.306;5.634;2023-06-22T11:52:23;101585.44;;;24.88;50.27
60319;BME280;46163;52.306;5.634;2023-06-22T11:54:49;101574.78;;;24.91;49.55
60319;BME280;46163;52.306;5.634;2023-06-22T11:57:14;101571.28;;;24.86;50.88
60319;BME280;46163;52.306;5.634;2023-06-22T11:59:40;101569.63;;;24.95;49.46
60319;BME280;46163;52.306;5.634;2023-06-22T12:02:05;101577.06;;;25.33;49.08
60319;BME280;46163;52.306;5.634;2023-06-22T12:04:33;101563.28;;;25.59;47.19
60319;BME280;46163;52.306;5.634;2023-06-22T12:06:58;101553.00;;;24.96;47.72
60319;BME280;46163;52.306;5.634;2023-06-22T12:09:24;101545.72;;;25.36;47.73
60319;BME280;46163;52.306;5.634;2023-06-22T12:11:50;101556.81;;;25.45;47.84
60319;BME280;46163;52.306;5.634;2023-06-22T12:14:15;101548.38;;;25.46;47.73
60319;BME280;46163;52.306;5.634;2023-06-22T12:16:41;101555.69;;;25.56;47.45
60319;BME280;46163;52.306;5.634;2023-06-22T12:19:09;101551.75;;;25.67;46.64
60319;BME280;46163;52.306;5.634;2023-06-22T12:21:37;101549.31;;;25.26;46.78
60319;BME280;46163;52.306;5.634;2023-06-22T12:24:04;101551.81;;;25.23;46.69
60319;BME280;46163;52.306;5.634;2023-06-22T12:26:30;101547.19;;;25.18;46.25
60319;BME280;46163;52.306;5.634;2023-06-22T12:28:56;101531.53;;;24.85;47.17
60319;BME280;46163;52.306;5.634;2023-06-22T12:31:23;101542.56;;;24.49;48.51
60319;BME280;46163;52.306;5.634;2023-06-22T12:33:48;101551.28;;;24.46;47.43
60319;BME280;46163;52.306;5.634;2023-06-22T12:36:14;101538.78;;;24.35;47.25
60319;BME280;46163;52.306;5.634;2023-06-22T12:38:41;101537.16;;;24.13;48.39
60319;BME280;46163;52.306;5.634;2023-06-22T12:41:07;101541.22;;;24.21;48.90
60319;BME280;46163;52.306;5.634;2023-06-22T12:43:33;101540.44;;;24.05;49.84
60319;BME280;46163;52.306;5.634;2023-06-22T12:45:59;101528.75;;;24.05;50.56
60319;BME280;46163;52.306;5.634;2023-06-22T12:48:26;101540.19;;;23.91;53.53
60319;BME280;46163;52.306;5.634;2023-06-22T12:50:51;101535.84;;;23.85;54.09
60319;BME280;46163;52.306;5.634;2023-06-22T12:53:17;101532.84;;;23.72;54.86
60319;BME280;46163;52.306;5.634;2023-06-22T12:55:42;101534.22;;;23.74;54.95
60319;BME280;46163;52.306;5.634;2023-06-22T12:58:08;101520.34;;;23.71;54.98
60319;BME280;46163;52.306;5.634;2023-06-22T13:00:34;101514.38;;;23.68;52.86
60319;BME280;46163;52.306;5.634;2023-06-22T13:02:59;101523.59;;;23.98;53.58
60319;BME280;46163;52.306;5.634;2023-06-22T13:05:40;101525.22;;;24.09;54.13
60319;BME280;46163;52.306;5.634;2023-06-22T13:08:06;101527.13;;;24.09;53.55
60319;BME280;46163;52.306;5.634;2023-06-22T13:10:31;101518.41;;;24.12;53.45
60319;BME280;46163;52.306;5.634;2023-06-22T13:12:57;101521.13;;;24.17;53.91
60319;BME280;46163;52.306;5.634;2023-06-22T13:15:27;101512.16;;;24.01;54.35
60319;BME280;46163;52.306;5.634;2023-06-22T13:17:53;101516.00;;;23.85;53.84
60319;BME280;46163;52.306;5.634;2023-06-22T13:20:19;101514.34;;;23.79;54.60
60319;BME280;46163;52.306;5.634;2023-06-22T13:22:44;101509.75;;;23.84;54.81
60319;BME280;46163;52.306;5.634;2023-06-22T13:25:10;101496.69;;;23.76;54.51
60319;BME280;46163;52.306;5.634;2023-06-22T13:27:44;101510.56;;;23.80;55.18
60319;BME280;46163;52.306;5.634;2023-06-22T13:30:10;101496.41;;;23.37;55.83
60319;BME280;46163;52.306;5.634;2023-06-22T13:32:36;101505.84;;;23.04;58.56
60319;BME280;46163;52.306;5.634;2023-06-22T13:35:08;101499.81;;;22.92;59.10
60319;BME280;46163;52.306;5.634;2023-06-22T13:37:33;101485.38;;;22.81;59.96
60319;BME280;46163;52.306;5.634;2023-06-22T13:39:59;101494.41;;;22.87;60.84
60319;BME280;46163;52.306;5.634;2023-06-22T13:42:25;101491.31;;;22.73;61.55
60319;BME280;46163;52.306;5.634;2023-06-22T13:44:53;101490.78;;;22.71;61.53
60319;BME280;46163;52.306;5.634;2023-06-22T13:47:19;101470.66;;;22.62;62.09
60319;BME280;46163;52.306;5.634;2023-06-22T13:49:45;101491.09;;;22.84;62.30
60319;BME280;46163;52.306;5.634;2023-06-22T13:52:10;101487.06;;;22.92;61.56
60319;BME280;46163;52.306;5.634;2023-06-22T13:54:38;101487.06;;;22.87;63.66